Aérodrome :
LOGIN :

S'inscrire | Disclaimer

   EN    FR    IT 

 










Légende :    VFR   VFR Marginal   IFR   IFR Intensif   IFR Très Intensif
Visi : 
Plafond : 
>= 8 km
>= 3000ft
5 à 8 km
1000 à 3000 ft
1500m à 5 km
500 à 1000 ft
800 à 1500m
200 à 500 ft
< 800m
< 200 ft
Symboles :   Orages  Brouillard  Fortes neiges  Fortes précipitations  Vent > 20 kt
SIGMETs :   Divers  Orages  Givrage  Turbulence  Onde Orograph.  Cendres Volcan.







- Altitude de l'aérodrome : 257 ft
- Code IATA : MAN
- Voir les cartes d'approche


EGCC - Manchester

DERNIER METAR :
  • 220650Z AUTO 21010KT 170V240 9999 BKN019 20/17 Q1017

METARs EXPIRÉS :
  • 220620Z AUTO 21011KT 170V250 9999 BKN026 20/17 Q1016
  • 220550Z AUTO 21012KT 180V240 9999 SCT025 20/17 Q1016
  • 220520Z AUTO 21010KT 9999 BKN017 BKN023 19/17 Q1016 TEMPO BKN010
  • 220450Z AUTO 19007KT 9999 BKN013 OVC018 19/17 Q1016 TEMPO SCT013
  • 220420Z AUTO 19005KT 130V230 9999 BKN014 OVC019 19/17 Q1016 TEMPO SCT014

TAF TAF EGCC
Valide du 22 à 06h jusqu'au 23 à 12h UTC


220457Z 2206/2312 20010KT 9999 SCT025 BKN045
TEMPO 2206/2216 19015G25KT
PROB30
TEMPO 2221/2310 BKN012
BECMG 2300/2303 VRB03KT
BECMG 2309/2312 18010KT
ATIS : +44 161 499 2324
Pas de NOTAMs connus pour ce terrain.
1 SIGMET publié pour la FIR London (EGTT) :
 
Onde orographique forte
EGTT SIGMET 02 VALID 220600/221000 EGRR
EGTT LONDON FIR SEV MTW FCST WI N5500 E00140 - N5224 W00120 - N5221 W00530 - N5500 W00530 - N5500 E00140 FL040/240 MOV N 05KT NC=



MET'MAP, la Météo Aéronautique d'un coup d'oeil ! - Copyright ORBIFLY Décembre 2007 - Disclaimer

ORBIFLY MET'MAP TEAM :

Programmation & Développement : Alexandra Zaïnal
Conception & Développement : Baudouin d'Aumeries
Co-Programmation & Développement : Marc-Olivier Méhu
Soutien technique & logistique : Manuel Goepfert

Contact : metmap@orbifly.com




SOURCES & CREDITS :

   NOAA